createdAt,value
2019-01-05T00:02:15.029Z,74.88
2019-01-05T00:04:52.497Z,75.55
2019-01-05T00:07:33.174Z,75.37
2019-01-05T00:10:07.907Z,75.32
2019-01-05T00:12:55.999Z,75.03
2019-01-05T00:15:44.178Z,75.15
2019-01-05T00:18:15.412Z,75.23
2019-01-05T00:20:46.671Z,75.46
2019-01-05T00:23:21.513Z,75.18
2019-01-05T00:26:04.721Z,75.07
2019-01-05T00:28:52.672Z,75.73
2019-01-05T00:31:23.783Z,75.27
2019-01-05T00:34:16.396Z,75.32
2019-01-05T00:36:48.891Z,75.40
2019-01-05T00:39:24.134Z,75.56
2019-01-05T00:42:13.716Z,75.69
2019-01-05T00:44:53.862Z,75.30
2019-01-05T00:47:39.798Z,74.83
2019-01-05T00:53:12.709Z,75.69
2019-01-05T00:55:59.257Z,75.93
2019-01-05T00:58:33.467Z,75.65
2019-01-05T01:01:04.595Z,75.77
2019-01-05T01:03:45.475Z,75.93
2019-01-05T01:06:25.350Z,75.43
2019-01-05T01:08:56.704Z,75.67
2019-01-05T01:11:37.645Z,75.84
2019-01-05T01:14:18.794Z,76.34
2019-01-05T01:16:50.170Z,75.98
2019-01-05T01:19:23.803Z,75.82
2019-01-05T01:21:59.739Z,75.80
2019-01-05T01:24:35.585Z,75.86
2019-01-05T01:27:09.439Z,75.89
2019-01-05T01:29:40.239Z,76.24
2019-01-05T01:32:14.556Z,76.18
2019-01-05T01:34:45.824Z,75.70
2019-01-05T01:37:26.100Z,75.87
2019-01-05T01:39:58.414Z,75.96
2019-01-05T01:42:33.135Z,75.75
2019-01-05T01:45:14.499Z,76.03
2019-01-05T01:48:04.298Z,76.19
2019-01-05T01:50:52.414Z,75.99
2019-01-05T01:53:40.648Z,75.95
2019-01-05T01:56:19.382Z,75.91
2019-01-05T01:59:07.563Z,75.84
2019-01-05T02:01:39.191Z,76.40
2019-01-05T02:04:10.516Z,76.16
2019-01-05T02:06:45.031Z,75.99
2019-01-05T02:09:16.521Z,76.40
2019-01-05T02:11:48.045Z,76.79
2019-01-05T02:14:28.858Z,76.83
2019-01-05T02:17:17.998Z,76.87
2019-01-05T02:20:07.093Z,77.19
2019-01-05T02:23:21.927Z,77.00
2019-01-05T02:26:31.214Z,76.97
2019-01-05T02:29:31.377Z,76.84
2019-01-05T02:32:28.163Z,76.55
2019-01-05T02:35:17.360Z,76.30
2019-01-05T02:38:15.327Z,76.93
2019-01-05T02:40:52.114Z,76.73
2019-01-05T02:43:47.429Z,77.14
2019-01-05T02:46:51.580Z,76.89
2019-01-05T02:49:43.776Z,76.72
2019-01-05T02:52:26.652Z,76.65
2019-01-05T02:55:32.541Z,76.76
2019-01-05T02:58:31.779Z,76.74
2019-01-05T03:01:21.075Z,76.58
2019-01-05T03:04:19.088Z,76.99
2019-01-05T03:07:14.287Z,76.52
2019-01-05T03:10:06.635Z,76.08
2019-01-05T03:12:46.405Z,76.74
2019-01-05T03:15:32.770Z,76.94
2019-01-05T03:18:35.600Z,76.68
2019-01-05T03:21:18.977Z,77.31
2019-01-05T03:24:01.488Z,77.36
2019-01-05T03:26:45.212Z,76.89
2019-01-05T03:30:01.263Z,77.02
2019-01-05T03:33:04.109Z,77.66
2019-01-05T03:35:55.355Z,77.62
2019-01-05T03:38:34.885Z,77.69
2019-01-05T03:41:30.152Z,77.92
2019-01-05T03:44:16.238Z,77.59
2019-01-05T03:47:08.277Z,77.63
2019-01-05T03:50:07.197Z,77.33
2019-01-05T03:53:00.983Z,77.23
2019-01-05T03:56:22.191Z,77.75
2019-01-05T03:59:30.603Z,77.81
2019-01-05T04:02:24.820Z,77.87
2019-01-05T04:05:19.589Z,77.83
2019-01-05T04:07:53.730Z,77.42
2019-01-05T04:10:57.693Z,77.58
2019-01-05T04:13:50.712Z,77.53
2019-01-05T04:17:14.283Z,77.75
2019-01-05T04:20:07.287Z,77.45
2019-01-05T04:23:05.271Z,77.21
2019-01-05T04:25:56.532Z,77.68
2019-01-05T04:28:42.113Z,78.01
2019-01-05T04:31:51.036Z,77.75
2019-01-05T04:35:09.037Z,77.88
2019-01-05T04:38:09.061Z,78.27
2019-01-05T04:41:09.615Z,78.55
2019-01-05T04:44:32.065Z,78.71
2019-01-05T04:47:15.203Z,78.15
2019-01-05T04:49:58.743Z,77.95
2019-01-05T04:52:49.603Z,78.06
2019-01-05T04:55:48.804Z,78.06
2019-01-05T04:58:40.672Z,78.11
2019-01-05T05:01:53.576Z,78.21
2019-01-05T05:04:48.646Z,78.19
2019-01-05T05:07:42.531Z,78.29
2019-01-05T05:10:35.106Z,78.51
2019-01-05T05:13:48.661Z,78.64
2019-01-05T05:16:48.575Z,78.31
2019-01-05T05:19:47.368Z,78.71
2019-01-05T05:22:47.164Z,78.84
2019-01-05T05:25:41.349Z,77.86
2019-01-05T05:28:32.004Z,78.29
2019-01-05T05:31:24.599Z,78.10
2019-01-05T05:34:10.260Z,77.79
2019-01-05T05:37:07.105Z,77.82
2019-01-05T05:40:29.305Z,78.26
2019-01-05T05:43:13.208Z,78.47
2019-01-05T05:46:23.091Z,78.99
2019-01-05T05:49:49.279Z,78.69
2019-01-05T05:52:26.627Z,78.68
2019-01-05T05:55:22.621Z,78.74
2019-01-05T05:58:05.675Z,78.54
2019-01-05T06:01:20.396Z,78.86
2019-01-05T06:04:07.350Z,78.81
2019-01-05T06:07:04.248Z,78.65
2019-01-05T06:10:19.743Z,78.69
2019-01-05T06:13:14.672Z,79.22
2019-01-05T06:15:48.517Z,79.43
2019-01-05T06:18:31.251Z,79.26
2019-01-05T06:21:23.064Z,79.48
2019-01-05T06:24:38.219Z,78.96
2019-01-05T06:27:34.625Z,78.90
2019-01-05T06:30:34.380Z,78.78
2019-01-05T06:33:32.099Z,78.79
2019-01-05T06:36:29.381Z,78.90
2019-01-05T06:39:44.267Z,78.89
2019-01-05T06:42:30.410Z,79.16
2019-01-05T06:45:36.985Z,78.83
2019-01-05T06:48:45.789Z,78.97
2019-01-05T06:51:39.212Z,78.95
2019-01-05T06:54:38.415Z,79.09
2019-01-05T06:57:29.309Z,79.22
2019-01-05T07:00:25.485Z,79.29
2019-01-05T07:03:16.082Z,79.29
2019-01-05T07:06:09.637Z,79.06
2019-01-05T07:09:27.837Z,79.04
2019-01-05T07:12:25.277Z,79.08
2019-01-05T07:15:01.709Z,79.39
2019-01-05T07:18:00.929Z,79.34
2019-01-05T07:21:04.135Z,79.39
2019-01-05T07:23:58.034Z,78.94
2019-01-05T07:26:57.526Z,79.17
2019-01-05T07:30:10.408Z,79.23
2019-01-05T07:33:01.789Z,79.38
2019-01-05T07:35:52.329Z,79.34
2019-01-05T07:38:54.275Z,79.63
2019-01-05T07:41:47.163Z,79.43
2019-01-05T07:44:35.893Z,79.28
2019-01-05T07:47:35.232Z,79.25
2019-01-05T07:50:51.657Z,79.36
2019-01-05T07:53:53.914Z,79.36
2019-01-05T07:57:02.777Z,78.97
2019-01-05T08:00:17.508Z,78.85
2019-01-05T08:03:29.105Z,79.22
2019-01-05T08:06:31.815Z,79.64
2019-01-05T08:09:32.652Z,79.69
2019-01-05T08:12:32.397Z,80.05
2019-01-05T08:15:35.682Z,80.12
2019-01-05T08:18:32.096Z,80.12
2019-01-05T08:21:53.449Z,80.06
2019-01-05T08:24:42.160Z,79.91
2019-01-05T08:27:39.811Z,80.03
2019-01-05T08:30:52.735Z,80.09
2019-01-05T08:33:49.983Z,80.04
2019-01-05T08:36:30.243Z,79.98
2019-01-05T08:39:20.028Z,79.96
2019-01-05T08:42:30.681Z,80.03
2019-01-05T08:45:39.393Z,80.17
2019-01-05T08:48:38.211Z,80.14
2019-01-05T08:51:21.165Z,80.27
2019-01-05T08:54:32.723Z,80.27
2019-01-05T08:57:42.931Z,80.37
2019-01-05T09:00:47.094Z,80.32
2019-01-05T09:03:44.895Z,80.57
2019-01-05T09:06:44.391Z,80.62
2019-01-05T09:09:54.074Z,80.60
2019-01-05T09:12:47.777Z,80.59
2019-01-05T09:16:10.088Z,80.45
2019-01-05T09:19:17.167Z,80.25
2019-01-05T09:22:29.151Z,80.49
2019-01-05T09:25:26.087Z,80.27
2019-01-05T09:28:08.761Z,80.46
2019-01-05T09:31:04.132Z,80.42
2019-01-05T09:34:12.566Z,80.31
2019-01-05T09:37:38.651Z,80.32
2019-01-05T09:40:34.984Z,80.53
2019-01-05T09:43:32.880Z,80.87
2019-01-05T09:46:38.427Z,80.62
2019-01-05T09:49:34.934Z,81.22
2019-01-05T09:52:30.159Z,82.50
2019-01-05T09:55:54.494Z,82.87
2019-01-05T09:59:12.093Z,83.66
2019-01-05T10:02:36.047Z,83.41
2019-01-05T10:05:15.462Z,83.11
2019-01-05T10:08:28.381Z,83.56
2019-01-05T10:11:35.771Z,83.66
2019-01-05T10:14:43.363Z,83.28
2019-01-05T10:18:06.428Z,83.33
2019-01-05T10:21:18.165Z,82.92
2019-01-05T10:24:28.600Z,82.93
2019-01-05T10:27:14.003Z,81.93
2019-01-05T10:30:37.962Z,80.77
2019-01-05T10:33:29.838Z,78.72
2019-01-05T10:36:20.447Z,76.28
2019-01-05T10:39:15.867Z,74.88
2019-01-05T10:42:11.107Z,74.24
2019-01-05T10:45:20.012Z,72.64
2019-01-05T10:48:15.209Z,71.61
2019-01-05T10:51:22.632Z,70.54
2019-01-05T10:54:22.280Z,69.67
2019-01-05T10:57:22.044Z,68.67
2019-01-05T11:00:28.192Z,68.15
2019-01-05T11:03:51.747Z,67.22
2019-01-05T11:06:45.389Z,66.01
2019-01-05T11:09:50.033Z,67.28
2019-01-05T11:12:51.101Z,67.72
2019-01-05T11:15:48.779Z,64.27
2019-01-05T11:18:34.421Z,63.61
2019-01-05T11:21:42.744Z,62.43
2019-01-05T11:24:39.159Z,62.13
2019-01-05T11:27:33.664Z,61.57
2019-01-05T11:30:22.731Z,61.03
2019-01-05T11:33:19.456Z,60.32
2019-01-05T11:36:18.118Z,59.62
2019-01-05T11:39:12.866Z,59.10
2019-01-05T11:41:54.016Z,58.74
2019-01-05T11:44:43.118Z,58.57
2019-01-05T11:48:03.828Z,58.74
2019-01-05T11:50:47.681Z,58.05
2019-01-05T11:53:42.011Z,58.03
2019-01-05T11:56:43.667Z,57.61
2019-01-05T11:59:40.065Z,57.09
2019-01-05T12:02:33.192Z,56.83
2019-01-05T12:05:19.823Z,55.94
2019-01-05T12:08:34.756Z,55.89
2019-01-05T12:11:40.855Z,56.33
2019-01-05T12:14:55.812Z,56.41
2019-01-05T12:17:48.639Z,56.75
2019-01-05T12:20:49.582Z,56.15
2019-01-05T12:23:35.535Z,54.97
2019-01-05T12:26:36.911Z,55.03
2019-01-05T12:29:57.790Z,54.78
2019-01-05T12:32:48.380Z,53.78
2019-01-05T12:35:47.447Z,53.38
2019-01-05T12:38:52.164Z,53.21
2019-01-05T12:42:07.243Z,52.20
2019-01-05T12:44:59.536Z,52.99
2019-01-05T12:47:55.886Z,53.26
2019-01-05T12:50:52.236Z,53.31
2019-01-05T12:54:02.648Z,53.85
2019-01-05T12:57:13.156Z,53.17
2019-01-05T12:59:55.817Z,53.02
2019-01-05T13:03:12.293Z,53.47
2019-01-05T13:06:20.010Z,53.02
2019-01-05T13:09:09.179Z,52.08
2019-01-05T13:12:03.109Z,52.30
2019-01-05T13:15:22.829Z,51.69
2019-01-05T13:18:15.437Z,50.98
2019-01-05T13:21:22.821Z,50.91
2019-01-05T13:24:21.962Z,51.09
2019-01-05T13:27:27.775Z,50.08
2019-01-05T13:30:28.599Z,49.59
2019-01-05T13:33:05.035Z,49.83
2019-01-05T13:35:54.211Z,49.76
2019-01-05T13:38:58.852Z,48.95
2019-01-05T13:42:18.107Z,49.51
2019-01-05T13:45:18.025Z,48.78
2019-01-05T13:48:29.471Z,47.93
2019-01-05T13:51:24.749Z,47.60
2019-01-05T13:54:12.908Z,47.71
2019-01-05T13:56:52.715Z,47.57
2019-01-05T13:59:30.479Z,46.90
2019-01-05T14:02:07.914Z,48.13
2019-01-05T14:04:53.563Z,48.04
2019-01-05T14:07:31.092Z,48.01
2019-01-05T14:10:14.328Z,47.07
2019-01-05T14:12:58.375Z,47.46
2019-01-05T14:15:42.008Z,47.22
2019-01-05T14:18:19.846Z,47.31
2019-01-05T14:21:06.132Z,46.79
2019-01-05T14:23:49.409Z,46.19
2019-01-05T14:26:23.228Z,46.50
2019-01-05T14:29:02.771Z,46.77
2019-01-05T14:31:51.132Z,46.63
2019-01-05T14:34:31.254Z,46.59
2019-01-05T14:37:11.223Z,46.34
2019-01-05T14:39:51.879Z,47.50
2019-01-05T14:42:29.683Z,47.10
2019-01-05T14:45:00.954Z,46.82
2019-01-05T14:47:49.067Z,46.95
2019-01-05T14:50:29.749Z,47.13
2019-01-05T14:53:10.791Z,47.41
2019-01-05T14:55:48.485Z,47.59
2019-01-05T14:58:32.049Z,47.06
2019-01-05T15:01:03.426Z,46.71
2019-01-05T15:03:51.634Z,46.50
2019-01-05T15:06:29.157Z,46.79
2019-01-05T15:09:10.219Z,46.89
2019-01-05T15:11:50.746Z,47.10
2019-01-05T15:14:37.723Z,46.08
2019-01-05T15:17:16.177Z,46.43
2019-01-05T15:19:56.758Z,46.10
2019-01-05T15:22:37.068Z,46.29
2019-01-05T15:25:17.548Z,45.94
2019-01-05T15:27:56.060Z,44.98
2019-01-05T15:30:39.488Z,46.22
2019-01-05T15:33:20.760Z,46.60
2019-01-05T15:35:58.391Z,46.77
2019-01-05T15:38:47.352Z,46.40
2019-01-05T15:41:31.047Z,45.50
2019-01-05T15:44:05.173Z,45.88
2019-01-05T15:46:42.421Z,45.63
2019-01-05T15:49:27.228Z,45.42
2019-01-05T15:52:06.183Z,46.29
2019-01-05T15:54:45.020Z,46.85
2019-01-05T15:57:16.321Z,46.65
2019-01-05T15:59:54.190Z,46.33
2019-01-05T16:02:42.423Z,46.56
2019-01-05T16:05:17.613Z,46.53
2019-01-05T16:07:56.527Z,47.10
2019-01-05T16:10:46.058Z,47.07
2019-01-05T16:13:33.964Z,47.64
2019-01-05T16:16:22.394Z,48.03
2019-01-05T16:19:00.269Z,48.66
2019-01-05T16:21:49.088Z,48.02
2019-01-05T16:24:26.837Z,48.49
2019-01-05T16:26:59.133Z,48.06
2019-01-05T16:29:36.604Z,48.43
2019-01-05T16:32:25.220Z,48.87
2019-01-05T16:35:02.879Z,49.34
2019-01-05T16:37:46.371Z,49.71
2019-01-05T16:40:23.797Z,50.32
2019-01-05T16:43:07.773Z,50.35
2019-01-05T16:45:48.608Z,51.24
2019-01-05T16:48:26.088Z,51.34
2019-01-05T16:50:58.945Z,51.86
2019-01-05T16:53:34.095Z,52.88
2019-01-05T16:56:11.759Z,53.86
2019-01-05T16:58:49.176Z,54.49
2019-01-05T17:01:37.504Z,54.98
2019-01-05T17:04:14.826Z,55.76
2019-01-05T17:07:03.073Z,56.18
2019-01-05T17:09:38.245Z,56.43
2019-01-05T17:12:16.220Z,56.85
2019-01-05T17:14:57.140Z,57.56
2019-01-05T17:17:34.720Z,58.27
2019-01-05T17:20:07.776Z,58.69
2019-01-05T17:22:39.379Z,59.09
2019-01-05T17:25:29.321Z,59.20
2019-01-05T17:28:17.246Z,59.31
2019-01-05T17:31:00.607Z,60.08
2019-01-05T17:33:38.600Z,60.41
2019-01-05T17:36:26.883Z,61.17
2019-01-05T17:39:14.999Z,61.84
2019-01-05T17:41:53.017Z,62.63
2019-01-05T17:44:24.466Z,62.54
2019-01-05T17:46:55.842Z,62.34
2019-01-05T17:49:34.102Z,62.78
2019-01-05T17:52:23.204Z,63.22
2019-01-05T17:55:11.925Z,63.90
2019-01-05T17:58:00.493Z,63.96
2019-01-05T18:00:43.817Z,64.04
2019-01-05T18:03:14.970Z,64.47
2019-01-05T18:06:05.567Z,64.52
2019-01-05T18:08:49.098Z,64.63
2019-01-05T18:11:26.831Z,64.81
2019-01-05T18:13:58.574Z,65.04
2019-01-05T18:16:46.925Z,65.00
2019-01-05T18:19:34.911Z,65.16
2019-01-05T18:22:18.699Z,66.09
2019-01-05T18:24:56.021Z,66.26
2019-01-05T18:27:34.006Z,66.58
2019-01-05T18:30:08.947Z,66.91
2019-01-05T18:32:55.879Z,66.79
2019-01-05T18:35:27.103Z,67.11
2019-01-05T18:38:04.802Z,67.42
2019-01-05T18:40:51.425Z,67.83
2019-01-05T18:43:39.712Z,67.21
2019-01-05T18:46:28.327Z,67.55
2019-01-05T18:49:12.334Z,67.71
2019-01-05T18:51:43.578Z,68.55
2019-01-05T18:54:31.396Z,68.35
2019-01-05T18:57:08.908Z,68.38
2019-01-05T18:59:42.744Z,68.29
2019-01-05T19:02:14.096Z,68.70
2019-01-05T19:04:45.292Z,69.28
2019-01-05T19:07:33.239Z,69.22
2019-01-05T19:10:04.693Z,69.35
2019-01-05T19:12:50.886Z,68.73
2019-01-05T19:15:27.169Z,69.40
2019-01-05T19:18:04.712Z,69.47
2019-01-05T19:20:45.047Z,68.93
2019-01-05T19:23:34.851Z,69.07
2019-01-05T19:26:15.125Z,68.90
2019-01-05T19:28:55.992Z,69.52
2019-01-05T19:31:35.627Z,69.07
2019-01-05T19:34:20.238Z,68.59
2019-01-05T19:36:58.936Z,68.92
2019-01-05T19:39:46.824Z,69.12
2019-01-05T19:42:18.042Z,69.31
2019-01-05T19:45:06.043Z,69.43
2019-01-05T19:47:41.053Z,69.58
2019-01-05T19:50:12.445Z,69.15
2019-01-05T19:53:01.134Z,68.51
2019-01-05T19:55:32.630Z,68.98
2019-01-05T19:58:03.598Z,69.42
2019-01-05T20:00:34.586Z,69.18
2019-01-05T20:03:08.829Z,70.12
2019-01-05T20:05:40.012Z,70.37
2019-01-05T20:08:28.232Z,70.57
2019-01-05T20:11:15.688Z,70.55
2019-01-05T20:13:54.688Z,70.40
2019-01-05T20:16:39.113Z,69.84
2019-01-05T20:19:20.217Z,69.22
2019-01-05T20:21:57.414Z,69.61
2019-01-05T20:24:37.956Z,70.33
2019-01-05T20:27:24.111Z,70.42
2019-01-05T20:29:59.424Z,70.39
2019-01-05T20:32:36.861Z,69.75
2019-01-05T20:35:11.053Z,70.08
2019-01-05T20:37:42.471Z,69.78
2019-01-05T20:40:30.552Z,70.03
2019-01-05T20:43:01.855Z,70.94
2019-01-05T20:45:50.060Z,71.08
2019-01-05T20:48:39.650Z,71.16
2019-01-05T20:51:22.492Z,71.48
2019-01-05T20:54:12.221Z,71.78
2019-01-05T20:56:55.772Z,71.32
2019-01-05T20:59:43.590Z,71.25
2019-01-05T21:02:30.516Z,71.30
2019-01-05T21:05:11.404Z,71.22
2019-01-05T21:07:59.676Z,70.96
2019-01-05T21:10:39.242Z,70.84
2019-01-05T21:13:10.474Z,70.97
2019-01-05T21:15:58.079Z,71.01
2019-01-05T21:18:42.160Z,70.83
2019-01-05T21:21:13.494Z,71.04
2019-01-05T21:24:02.013Z,71.03
2019-01-05T21:26:42.466Z,71.20
2019-01-05T21:29:14.156Z,71.28
2019-01-05T21:31:52.092Z,71.24
2019-01-05T21:34:41.779Z,71.54
2019-01-05T21:37:19.301Z,71.45
2019-01-05T21:39:56.110Z,71.60
2019-01-05T21:42:33.689Z,71.82
2019-01-05T21:45:04.747Z,72.24
2019-01-05T21:47:52.953Z,72.44
2019-01-05T21:50:23.975Z,71.55
2019-01-05T21:52:54.919Z,71.80
2019-01-05T21:55:40.992Z,71.62
2019-01-05T21:58:30.158Z,71.52
2019-01-05T22:01:13.648Z,71.51
2019-01-05T22:03:50.826Z,71.52
2019-01-05T22:06:34.238Z,72.24
2019-01-05T22:09:22.282Z,71.89
2019-01-05T22:11:59.627Z,71.60
2019-01-05T22:14:37.238Z,71.28
2019-01-05T22:17:14.715Z,71.81
2019-01-05T22:20:04.883Z,71.90
2019-01-05T22:22:42.423Z,71.87
2019-01-05T22:25:30.419Z,72.14
2019-01-05T22:28:01.448Z,72.47
2019-01-05T22:30:41.647Z,72.19
2019-01-05T22:33:29.946Z,72.00
2019-01-05T22:36:23.670Z,72.35
2019-01-05T22:39:11.610Z,72.44
2019-01-05T22:41:48.778Z,72.05
2019-01-05T22:44:35.027Z,71.63
2019-01-05T22:47:12.179Z,71.64
2019-01-05T22:50:00.927Z,71.88
2019-01-05T22:52:31.897Z,72.14
2019-01-05T22:55:12.109Z,72.60
2019-01-05T22:57:42.938Z,72.31
2019-01-05T23:00:20.644Z,71.63
2019-01-05T23:02:53.999Z,72.59
2019-01-05T23:05:42.011Z,72.42
2019-01-05T23:08:22.574Z,72.09
2019-01-05T23:11:00.283Z,72.62
2019-01-05T23:13:31.403Z,73.04
2019-01-05T23:16:19.921Z,72.78
2019-01-05T23:19:03.585Z,73.14
2019-01-05T23:21:51.722Z,72.61
2019-01-05T23:24:26.428Z,72.61
2019-01-05T23:27:03.815Z,72.63
2019-01-05T23:29:47.680Z,72.67
2019-01-05T23:32:18.663Z,72.37
2019-01-05T23:34:59.419Z,72.92
2019-01-05T23:37:49.469Z,72.57
2019-01-05T23:40:20.541Z,72.64
2019-01-05T23:42:51.500Z,72.78
2019-01-05T23:45:29.958Z,72.57
2019-01-05T23:48:04.252Z,73.25
2019-01-05T23:50:52.511Z,72.85
2019-01-05T23:53:23.360Z,73.16
2019-01-05T23:56:09.761Z,73.89
2019-01-05T23:58:57.718Z,73.97
